createdAt,value
2017-05-26T00:00:06.886Z,0
2017-05-26T00:01:06.556Z,0
2017-05-26T00:02:06.208Z,0
2017-05-26T00:03:06.571Z,0
2017-05-26T00:04:06.890Z,0
2017-05-26T00:05:06.899Z,0
2017-05-26T00:06:06.546Z,0
2017-05-26T00:07:06.241Z,0
2017-05-26T00:08:06.880Z,0
2017-05-26T00:09:06.584Z,0
2017-05-26T00:10:06.627Z,0
2017-05-26T00:11:06.592Z,0
2017-05-26T00:12:06.288Z,0
2017-05-26T00:13:06.970Z,0
2017-05-26T00:14:06.658Z,0
2017-05-26T00:15:06.717Z,0
2017-05-26T00:16:06.630Z,0
2017-05-26T00:17:06.947Z,0
2017-05-26T00:18:07.004Z,0
2017-05-26T00:19:07.009Z,0
2017-05-26T00:20:06.975Z,0
2017-05-26T00:21:06.669Z,0
2017-05-26T00:22:07.040Z,0
2017-05-26T00:23:07.005Z,0
2017-05-26T00:24:07.000Z,0
2017-05-26T00:25:07.008Z,0
2017-05-26T00:26:06.400Z,0
2017-05-26T00:27:06.144Z,0
2017-05-26T00:28:06.723Z,0
2017-05-26T00:29:06.735Z,0
2017-05-26T00:30:06.793Z,0
2017-05-26T00:31:06.749Z,0
2017-05-26T00:32:06.755Z,0
2017-05-26T00:33:06.764Z,0
2017-05-26T00:34:06.822Z,0
2017-05-26T00:35:06.468Z,0
2017-05-26T00:36:06.786Z,0
2017-05-26T00:37:06.794Z,0
2017-05-26T00:38:06.550Z,0
2017-05-26T00:39:06.190Z,0
2017-05-26T00:40:07.178Z,0
2017-05-26T00:41:06.517Z,0
2017-05-26T00:42:06.892Z,0
2017-05-26T00:43:06.861Z,0
2017-05-26T00:44:06.606Z,0
2017-05-26T00:45:06.553Z,0
2017-05-26T00:46:06.916Z,0
2017-05-26T00:47:06.562Z,0
2017-05-26T00:48:07.193Z,0
2017-05-26T00:49:07.251Z,0
2017-05-26T00:50:06.589Z,0
2017-05-26T00:51:06.906Z,0
2017-05-26T00:52:06.991Z,0
2017-05-26T00:53:06.918Z,0
2017-05-26T00:54:06.666Z,0
2017-05-26T00:55:06.943Z,0
2017-05-26T00:56:06.949Z,0
2017-05-26T00:57:07.263Z,0
2017-05-26T00:58:06.347Z,0
2017-05-26T00:59:07.020Z,0
2017-05-26T01:00:06.977Z,0
2017-05-26T01:01:07.354Z,0
2017-05-26T01:02:07.358Z,0
2017-05-26T01:03:07.313Z,0
2017-05-26T01:04:07.060Z,0
2017-05-26T01:05:07.019Z,0
2017-05-26T01:06:07.024Z,0
2017-05-26T01:07:07.393Z,0
2017-05-26T01:08:07.040Z,0
2017-05-26T01:09:07.052Z,0
2017-05-26T01:10:06.750Z,0
2017-05-26T01:11:06.755Z,0
2017-05-26T01:12:07.125Z,0
2017-05-26T01:13:07.086Z,0
2017-05-26T01:14:07.499Z,0
2017-05-26T01:15:07.146Z,0
2017-05-26T01:16:07.472Z,0
2017-05-26T01:17:06.852Z,0
2017-05-26T01:18:07.229Z,0
2017-05-26T01:19:07.456Z,0
2017-05-26T01:20:07.186Z,0
2017-05-26T01:21:07.147Z,0
2017-05-26T01:22:07.512Z,0
2017-05-26T01:23:07.164Z,0
2017-05-26T01:24:07.214Z,0
2017-05-26T01:25:07.544Z,0
2017-05-26T01:26:07.494Z,0
2017-05-26T01:27:07.191Z,0
2017-05-26T01:28:07.200Z,0
2017-05-26T01:29:06.946Z,0
2017-05-26T01:30:07.519Z,0
2017-05-26T01:31:07.223Z,0
2017-05-26T01:32:07.546Z,0
2017-05-26T01:33:06.994Z,0
2017-05-26T01:34:06.939Z,0
2017-05-26T01:35:07.263Z,0
2017-05-26T01:36:07.314Z,0
2017-05-26T01:37:07.635Z,0
2017-05-26T01:38:07.015Z,0
2017-05-26T01:39:06.974Z,0
2017-05-26T01:40:06.676Z,0
2017-05-26T01:41:07.613Z,0
2017-05-26T01:42:07.359Z,0
2017-05-26T01:43:07.634Z,0
2017-05-26T01:44:07.388Z,0
2017-05-26T01:45:07.644Z,0
2017-05-26T01:46:07.688Z,0
2017-05-26T01:47:07.670Z,0
2017-05-26T01:48:07.774Z,0
2017-05-26T01:49:07.362Z,0
2017-05-26T01:50:07.114Z,0
2017-05-26T01:51:07.429Z,0
2017-05-26T01:52:07.391Z,0
2017-05-26T01:53:07.085Z,0
2017-05-26T01:54:07.451Z,0
2017-05-26T01:55:07.419Z,0
2017-05-26T01:56:07.728Z,0
2017-05-26T01:57:07.430Z,0
2017-05-26T01:58:07.751Z,0
2017-05-26T01:59:07.757Z,0
2017-05-26T02:00:07.145Z,0
2017-05-26T02:01:07.514Z,0
2017-05-26T02:02:07.818Z,0
2017-05-26T02:03:07.477Z,0
2017-05-26T02:04:07.482Z,0
2017-05-26T02:05:06.932Z,0
2017-05-26T02:06:07.856Z,0
2017-05-26T02:07:07.508Z,0
2017-05-26T02:08:07.206Z,0
2017-05-26T02:09:07.527Z,0
2017-05-26T02:10:06.909Z,0
2017-05-26T02:11:07.846Z,0
2017-05-26T02:12:07.232Z,0
2017-05-26T02:13:07.917Z,0
2017-05-26T02:14:07.256Z,0
2017-05-26T02:15:07.568Z,0
2017-05-26T02:16:07.887Z,0
2017-05-26T02:17:07.963Z,0
2017-05-26T02:18:07.906Z,0
2017-05-26T02:19:07.601Z,0
2017-05-26T02:20:07.306Z,0
2017-05-26T02:21:07.360Z,0
2017-05-26T02:22:07.628Z,0
2017-05-26T02:23:08.017Z,0
2017-05-26T02:24:07.955Z,0
2017-05-26T02:25:07.706Z,0
2017-05-26T02:26:07.657Z,0
2017-05-26T02:27:07.762Z,0
2017-05-26T02:28:07.672Z,0
2017-05-26T02:29:07.684Z,0
2017-05-26T02:30:07.704Z,0
2017-05-26T02:31:07.384Z,0
2017-05-26T02:32:07.705Z,0
2017-05-26T02:33:07.811Z,0
2017-05-26T02:34:07.717Z,0
2017-05-26T02:35:07.730Z,0
2017-05-26T02:36:07.844Z,0
2017-05-26T02:37:07.744Z,0
2017-05-26T02:38:07.756Z,0
2017-05-26T02:39:08.070Z,0
2017-05-26T02:40:07.297Z,0
2017-05-26T02:41:07.830Z,0
2017-05-26T02:42:07.794Z,0
2017-05-26T02:43:08.105Z,0
2017-05-26T02:44:07.797Z,0
2017-05-26T02:45:07.499Z,0
2017-05-26T02:46:07.870Z,0
2017-05-26T02:47:08.132Z,0
2017-05-26T02:48:07.830Z,0
2017-05-26T02:49:08.199Z,0
2017-05-26T02:50:07.539Z,0
2017-05-26T02:51:07.847Z,0
2017-05-26T02:52:07.547Z,0
2017-05-26T02:53:07.562Z,0
2017-05-26T02:54:08.183Z,0
2017-05-26T02:55:08.195Z,0
2017-05-26T02:56:07.897Z,0
2017-05-26T02:57:07.284Z,0
2017-05-26T02:58:07.602Z,0
2017-05-26T02:59:07.920Z,0
2017-05-26T03:00:07.678Z,0
2017-05-26T03:01:07.673Z,0
2017-05-26T03:02:08.252Z,0
2017-05-26T03:03:07.950Z,0
2017-05-26T03:04:08.272Z,0
2017-05-26T03:05:08.013Z,0
2017-05-26T03:06:08.430Z,0
2017-05-26T03:07:08.347Z,0
2017-05-26T03:08:07.676Z,0
2017-05-26T03:09:07.729Z,0
2017-05-26T03:10:08.325Z,0
2017-05-26T03:11:08.474Z,0
2017-05-26T03:12:07.758Z,0
2017-05-26T03:13:07.717Z,0
2017-05-26T03:14:07.724Z,0
2017-05-26T03:15:07.729Z,0
2017-05-26T03:16:08.357Z,0
2017-05-26T03:17:07.799Z,0
2017-05-26T03:18:08.172Z,0
2017-05-26T03:19:08.172Z,0
2017-05-26T03:20:08.389Z,0
2017-05-26T03:21:07.773Z,0
2017-05-26T03:22:07.783Z,0
2017-05-26T03:23:08.472Z,0
2017-05-26T03:24:08.488Z,0
2017-05-26T03:25:08.220Z,0
2017-05-26T03:26:08.436Z,0
2017-05-26T03:27:08.445Z,0
2017-05-26T03:28:08.141Z,0
2017-05-26T03:29:08.461Z,0
2017-05-26T03:30:07.847Z,0
2017-05-26T03:31:07.854Z,0
2017-05-26T03:32:08.275Z,0
2017-05-26T03:33:08.177Z,0
2017-05-26T03:34:08.500Z,0
2017-05-26T03:35:08.506Z,0
2017-05-26T03:36:08.612Z,0
2017-05-26T03:37:08.050Z,5
2017-05-26T03:38:08.536Z,5
2017-05-26T03:39:08.226Z,5
2017-05-26T03:40:08.233Z,5
2017-05-26T03:41:08.553Z,5
2017-05-26T03:42:08.558Z,5
2017-05-26T03:43:08.670Z,5
2017-05-26T03:44:08.632Z,5
2017-05-26T03:45:08.284Z,5
2017-05-26T03:46:08.286Z,5
2017-05-26T03:47:08.285Z,5
2017-05-26T03:48:08.298Z,5
2017-05-26T03:49:08.613Z,5
2017-05-26T03:50:08.006Z,5
2017-05-26T03:51:08.681Z,5
2017-05-26T03:52:07.708Z,10
2017-05-26T03:53:08.341Z,10
2017-05-26T03:54:08.723Z,10
2017-05-26T03:55:08.723Z,10
2017-05-26T03:56:08.668Z,10
2017-05-26T03:57:08.758Z,10
2017-05-26T03:58:08.696Z,10
2017-05-26T03:59:08.433Z,10
2017-05-26T04:00:08.696Z,10
2017-05-26T04:01:08.407Z,10
2017-05-26T04:02:08.726Z,10
2017-05-26T04:03:08.468Z,15
2017-05-26T04:04:08.421Z,15
2017-05-26T04:05:08.485Z,15
2017-05-26T04:06:08.442Z,15
2017-05-26T04:07:08.453Z,15
2017-05-26T04:08:08.775Z,15
2017-05-26T04:09:08.773Z,15
2017-05-26T04:10:07.847Z,15
2017-05-26T04:11:08.938Z,15
2017-05-26T04:12:08.219Z,15
2017-05-26T04:13:08.549Z,20
2017-05-26T04:14:08.192Z,20
2017-05-26T04:15:08.509Z,20
2017-05-26T04:16:08.614Z,20
2017-05-26T04:17:08.934Z,20
2017-05-26T04:18:08.845Z,20
2017-05-26T04:19:08.536Z,20
2017-05-26T04:20:08.878Z,30
2017-05-26T04:21:08.562Z,30
2017-05-26T04:22:08.567Z,30
2017-05-26T04:23:07.942Z,30
2017-05-26T04:24:08.893Z,30
2017-05-26T04:25:08.901Z,25
2017-05-26T04:26:08.953Z,25
2017-05-26T04:27:07.988Z,25
2017-05-26T04:28:09.273Z,25
2017-05-26T04:29:08.977Z,30
2017-05-26T04:30:08.625Z,30
2017-05-26T04:31:08.061Z,30
2017-05-26T04:32:08.954Z,35
2017-05-26T04:33:08.698Z,35
2017-05-26T04:34:08.394Z,35
2017-05-26T04:35:08.666Z,35
2017-05-26T04:36:08.988Z,35
2017-05-26T04:37:08.999Z,40
2017-05-26T04:38:09.052Z,35
2017-05-26T04:39:08.692Z,40
2017-05-26T04:40:09.015Z,50
2017-05-26T04:41:09.126Z,55
2017-05-26T04:42:08.770Z,55
2017-05-26T04:43:09.040Z,60
2017-05-26T04:44:08.731Z,65
2017-05-26T04:45:09.054Z,50
2017-05-26T04:46:08.804Z,55
2017-05-26T04:47:09.170Z,75
2017-05-26T04:48:08.785Z,135
2017-05-26T04:49:08.772Z,170
2017-05-26T04:50:08.528Z,210
2017-05-26T04:51:08.789Z,235
2017-05-26T04:52:08.864Z,250
2017-05-26T04:53:08.512Z,260
2017-05-26T04:54:09.128Z,265
2017-05-26T04:55:09.187Z,265
2017-05-26T04:56:08.838Z,260
2017-05-26T04:57:08.892Z,265
2017-05-26T04:58:08.875Z,285
2017-05-26T04:59:09.177Z,295
2017-05-26T05:00:08.870Z,305
2017-05-26T05:01:08.984Z,305
2017-05-26T05:02:08.577Z,305
2017-05-26T05:03:08.901Z,310
2017-05-26T05:04:08.912Z,325
2017-05-26T05:05:09.230Z,345
2017-05-26T05:06:09.295Z,355
2017-05-26T05:07:09.348Z,365
2017-05-26T05:08:08.950Z,375
2017-05-26T05:09:09.281Z,370
2017-05-26T05:10:09.280Z,380
2017-05-26T05:11:08.980Z,385
2017-05-26T05:12:08.989Z,395
2017-05-26T05:13:08.690Z,395
2017-05-26T05:14:09.007Z,400
2017-05-26T05:15:09.015Z,405
2017-05-26T05:16:08.718Z,415
2017-05-26T05:17:09.046Z,425
2017-05-26T05:18:09.098Z,425
2017-05-26T05:19:09.374Z,435
2017-05-26T05:20:09.066Z,435
2017-05-26T05:21:09.397Z,450
2017-05-26T05:22:09.402Z,450
2017-05-26T05:23:09.413Z,445
2017-05-26T05:24:08.801Z,455
2017-05-26T05:25:08.539Z,455
2017-05-26T05:26:09.454Z,445
2017-05-26T05:27:09.451Z,435
2017-05-26T05:28:09.463Z,445
2017-05-26T05:29:09.531Z,470
2017-05-26T05:30:09.226Z,475
2017-05-26T05:31:09.491Z,470
2017-05-26T05:32:09.554Z,475
2017-05-26T05:33:09.513Z,480
2017-05-26T05:34:09.215Z,470
2017-05-26T05:35:09.226Z,470
2017-05-26T05:36:09.234Z,520
2017-05-26T05:37:09.246Z,540
2017-05-26T05:38:09.627Z,545
2017-05-26T05:39:09.276Z,545
2017-05-26T05:40:09.283Z,550
2017-05-26T05:41:09.293Z,550
2017-05-26T05:42:09.298Z,550
2017-05-26T05:43:09.311Z,545
2017-05-26T05:44:09.324Z,510
2017-05-26T05:45:09.648Z,510
2017-05-26T05:46:09.345Z,555
2017-05-26T05:47:09.374Z,575
2017-05-26T05:48:09.675Z,580
2017-05-26T05:49:09.429Z,565
2017-05-26T05:50:09.703Z,570
2017-05-26T05:51:09.401Z,595
2017-05-26T05:52:09.724Z,615
2017-05-26T05:53:09.425Z,620
2017-05-26T05:54:09.487Z,630
2017-05-26T05:55:09.758Z,620
2017-05-26T05:56:09.511Z,585
2017-05-26T05:57:09.207Z,555
2017-05-26T05:58:09.507Z,575
2017-05-26T05:59:09.813Z,610
2017-05-26T06:00:09.924Z,650
2017-05-26T06:01:09.825Z,650
2017-05-26T06:02:08.923Z,660
2017-05-26T06:03:09.588Z,655
2017-05-26T06:04:09.602Z,665
2017-05-26T06:05:09.565Z,665
2017-05-26T06:06:09.633Z,650
2017-05-26T06:07:09.582Z,665
2017-05-26T06:08:09.596Z,705
2017-05-26T06:09:09.600Z,730
2017-05-26T06:10:09.309Z,685
2017-05-26T06:11:09.624Z,660
2017-05-26T06:12:09.635Z,700
2017-05-26T06:13:09.674Z,705
2017-05-26T06:14:09.671Z,685
2017-05-26T06:15:09.730Z,680
2017-05-26T06:16:09.787Z,735
2017-05-26T06:17:10.011Z,760
2017-05-26T06:18:09.761Z,740
2017-05-26T06:19:09.424Z,750
2017-05-26T06:20:09.736Z,765
2017-05-26T06:21:09.798Z,765
2017-05-26T06:22:09.827Z,770
2017-05-26T06:23:09.773Z,770
2017-05-26T06:24:09.780Z,745
2017-05-26T06:25:10.104Z,720
2017-05-26T06:26:09.861Z,695
2017-05-26T06:27:10.191Z,690
2017-05-26T06:28:09.578Z,670
2017-05-26T06:29:09.855Z,670
2017-05-26T06:30:09.908Z,700
2017-05-26T06:31:09.557Z,735
2017-05-26T06:32:09.591Z,785
2017-05-26T06:33:09.597Z,785
2017-05-26T06:34:09.291Z,800
2017-05-26T06:35:09.919Z,800
2017-05-26T06:36:09.637Z,790
2017-05-26T06:37:09.682Z,765
2017-05-26T06:38:09.960Z,755
2017-05-26T06:39:10.016Z,795
2017-05-26T06:40:09.981Z,820
2017-05-26T06:41:10.304Z,835
2017-05-26T06:42:10.007Z,820
2017-05-26T06:43:10.018Z,810
2017-05-26T06:44:10.345Z,815
2017-05-26T06:45:10.044Z,820
2017-05-26T06:46:10.108Z,835
2017-05-26T06:47:10.124Z,850
2017-05-26T06:48:10.136Z,865
2017-05-26T06:49:09.787Z,885
2017-05-26T06:50:09.798Z,840
2017-05-26T06:51:09.818Z,795
2017-05-26T06:52:10.132Z,825
2017-05-26T06:53:10.152Z,895
2017-05-26T06:54:09.852Z,915
2017-05-26T06:55:09.549Z,885
2017-05-26T06:56:10.183Z,860
2017-05-26T06:57:09.887Z,850
2017-05-26T06:58:10.218Z,880
2017-05-26T06:59:10.219Z,910
2017-05-26T07:00:10.602Z,905
2017-05-26T07:01:10.558Z,895
2017-05-26T07:02:10.359Z,905
2017-05-26T07:03:10.583Z,940
2017-05-26T07:04:10.338Z,965
2017-05-26T07:05:10.299Z,965
2017-05-26T07:06:10.677Z,965
2017-05-26T07:07:10.323Z,970
2017-05-26T07:08:10.389Z,975
2017-05-26T07:09:10.668Z,970
2017-05-26T07:10:10.719Z,980
2017-05-26T07:11:10.375Z,995
2017-05-26T07:12:10.386Z,1005
2017-05-26T07:13:10.710Z,985
2017-05-26T07:14:09.793Z,985
2017-05-26T07:15:10.589Z,1020
2017-05-26T07:16:10.757Z,1030
2017-05-26T07:17:09.829Z,990
2017-05-26T07:18:10.152Z,960
2017-05-26T07:19:10.792Z,985
2017-05-26T07:20:10.236Z,990
2017-05-26T07:21:10.199Z,1025
2017-05-26T07:22:10.517Z,1075
2017-05-26T07:23:10.945Z,1095
2017-05-26T07:24:10.546Z,1090
2017-05-26T07:25:10.914Z,1085
2017-05-26T07:26:10.257Z,1100
2017-05-26T07:27:10.580Z,1095
2017-05-26T07:28:10.956Z,1095
2017-05-26T07:29:10.929Z,1105
2017-05-26T07:30:10.613Z,1100
2017-05-26T07:31:10.744Z,1100
2017-05-26T07:32:10.962Z,1105
2017-05-26T07:33:10.971Z,945
2017-05-26T07:34:10.363Z,545
2017-05-26T07:35:11.012Z,165
2017-05-26T07:36:10.746Z,90
2017-05-26T07:37:10.710Z,80
2017-05-26T07:38:11.093Z,65
2017-05-26T07:39:10.449Z,60
2017-05-26T07:40:10.130Z,55
2017-05-26T07:41:10.761Z,55
2017-05-26T07:42:10.833Z,55
2017-05-26T07:43:10.526Z,50
2017-05-26T07:44:11.164Z,50
2017-05-26T07:45:10.807Z,50
2017-05-26T07:46:10.820Z,50
2017-05-26T07:47:10.826Z,50
2017-05-26T07:48:11.206Z,50
2017-05-26T07:49:10.278Z,50
2017-05-26T07:50:10.863Z,50
2017-05-26T07:51:10.870Z,50
2017-05-26T07:52:10.574Z,50
2017-05-26T07:53:10.893Z,50
2017-05-26T07:54:10.918Z,55
2017-05-26T07:55:10.909Z,60
2017-05-26T07:56:10.918Z,65
2017-05-26T07:57:11.291Z,70
2017-05-26T07:58:10.940Z,70
2017-05-26T07:59:11.005Z,70
2017-05-26T08:00:10.437Z,70
2017-05-26T08:01:10.678Z,70
2017-05-26T08:02:10.718Z,70
2017-05-26T08:03:10.413Z,70
2017-05-26T08:04:10.375Z,70
2017-05-26T08:05:11.318Z,70
2017-05-26T08:06:11.011Z,70
2017-05-26T08:07:11.342Z,65
2017-05-26T08:08:11.087Z,65
2017-05-26T08:09:11.047Z,65
2017-05-26T08:10:10.122Z,65
2017-05-26T08:11:11.376Z,65
2017-05-26T08:12:11.081Z,60
2017-05-26T08:13:11.446Z,60
2017-05-26T08:14:11.089Z,60
2017-05-26T08:15:10.792Z,60
2017-05-26T08:16:11.484Z,60
2017-05-26T08:17:11.433Z,60
2017-05-26T08:18:10.819Z,60
2017-05-26T08:19:10.831Z,60
2017-05-26T08:20:11.513Z,55
2017-05-26T08:21:11.574Z,55
2017-05-26T08:22:11.219Z,55
2017-05-26T08:23:11.489Z,55
2017-05-26T08:24:11.504Z,55
2017-05-26T08:25:11.199Z,55
2017-05-26T08:26:11.308Z,50
2017-05-26T08:27:11.365Z,50
2017-05-26T08:28:11.531Z,50
2017-05-26T08:29:10.921Z,50
2017-05-26T08:30:10.620Z,50
2017-05-26T08:31:43.335Z,55
2017-05-26T08:32:10.951Z,55
2017-05-26T08:33:10.976Z,55
2017-05-26T08:34:11.641Z,55
2017-05-26T08:35:11.598Z,55
2017-05-26T08:36:11.354Z,55
2017-05-26T08:37:11.305Z,55
2017-05-26T08:38:11.319Z,55
2017-05-26T08:39:11.683Z,55
2017-05-26T08:40:11.329Z,55
2017-05-26T08:41:11.717Z,60
2017-05-26T08:42:11.670Z,60
2017-05-26T08:43:11.050Z,60
2017-05-26T08:44:11.374Z,60
2017-05-26T08:45:11.171Z,60
2017-05-26T08:46:11.756Z,65
2017-05-26T08:47:11.446Z,65
2017-05-26T08:48:11.773Z,65
2017-05-26T08:49:11.416Z,65
2017-05-26T08:50:11.424Z,70
2017-05-26T08:51:11.536Z,70
2017-05-26T08:52:11.181Z,70
2017-05-26T08:53:11.452Z,70
2017-05-26T08:54:11.458Z,70
2017-05-26T08:55:11.475Z,70
2017-05-26T08:56:11.168Z,70
2017-05-26T08:57:11.492Z,70
2017-05-26T08:58:11.864Z,70
2017-05-26T08:59:11.510Z,70
2017-05-26T09:00:11.886Z,70
2017-05-26T09:01:11.839Z,70
2017-05-26T09:02:11.536Z,70
2017-05-26T09:03:11.590Z,70
2017-05-26T09:04:11.291Z,70
2017-05-26T09:05:11.561Z,70
2017-05-26T09:06:11.575Z,70
2017-05-26T09:07:11.587Z,70
2017-05-26T09:08:11.336Z,70
2017-05-26T09:09:11.603Z,70
2017-05-26T09:10:11.977Z,70
2017-05-26T09:11:11.984Z,70
2017-05-26T09:12:11.936Z,70
2017-05-26T09:13:11.698Z,70
2017-05-26T09:14:11.331Z,70
2017-05-26T09:15:11.963Z,70
2017-05-26T09:16:11.407Z,70
2017-05-26T09:17:11.996Z,70
2017-05-26T09:18:11.687Z,70
2017-05-26T09:19:11.685Z,70
2017-05-26T09:20:12.028Z,70
2017-05-26T09:21:11.398Z,65
2017-05-26T09:22:11.406Z,70
2017-05-26T09:23:11.778Z,70
2017-05-26T09:24:11.476Z,70
2017-05-26T09:25:11.438Z,70
2017-05-26T09:26:11.819Z,70
2017-05-26T09:27:11.459Z,70
2017-05-26T09:28:12.141Z,70
2017-05-26T09:29:11.778Z,70
2017-05-26T09:30:11.485Z,70
2017-05-26T09:31:11.848Z,70
2017-05-26T09:32:11.515Z,65
2017-05-26T09:33:12.183Z,65
2017-05-26T09:34:12.195Z,65
2017-05-26T09:35:11.944Z,65
2017-05-26T09:36:11.920Z,65
2017-05-26T09:37:11.604Z,65
2017-05-26T09:38:11.607Z,65
2017-05-26T09:39:11.571Z,65
2017-05-26T09:40:11.884Z,70
2017-05-26T09:41:11.895Z,70
2017-05-26T09:42:11.959Z,65
2017-05-26T09:43:12.231Z,65
2017-05-26T09:44:12.242Z,65
2017-05-26T09:45:12.250Z,65
2017-05-26T09:46:12.263Z,65
2017-05-26T09:47:11.643Z,65
2017-05-26T09:48:11.966Z,65
2017-05-26T09:49:11.761Z,65
2017-05-26T09:50:12.289Z,70
2017-05-26T09:51:11.674Z,65
2017-05-26T09:52:11.682Z,65
2017-05-26T09:53:11.748Z,65
2017-05-26T09:54:12.018Z,65
2017-05-26T09:55:12.023Z,65
2017-05-26T09:56:12.085Z,65
2017-05-26T09:57:12.056Z,65
2017-05-26T09:58:12.204Z,65
2017-05-26T09:59:12.176Z,65
2017-05-26T10:00:12.082Z,60
2017-05-26T10:01:12.184Z,65
2017-05-26T10:02:12.142Z,65
2017-05-26T10:03:11.796Z,65
2017-05-26T10:04:11.488Z,60
2017-05-26T10:05:12.170Z,65
2017-05-26T10:06:12.139Z,65
2017-05-26T10:07:12.187Z,65
2017-05-26T10:08:12.300Z,60
2017-05-26T10:09:12.225Z,60
2017-05-26T10:10:11.853Z,60
2017-05-26T10:11:12.183Z,60
2017-05-26T10:12:12.286Z,60
2017-05-26T10:13:11.577Z,60
2017-05-26T10:14:11.891Z,60
2017-05-26T10:15:12.211Z,60
2017-05-26T10:16:12.547Z,60
2017-05-26T10:17:12.239Z,60
2017-05-26T10:18:11.931Z,60
2017-05-26T10:19:12.265Z,60
2017-05-26T10:20:11.948Z,60
2017-05-26T10:21:11.696Z,60
2017-05-26T10:22:11.677Z,60
2017-05-26T10:23:12.345Z,60
2017-05-26T10:24:12.665Z,60
2017-05-26T10:25:12.006Z,60
2017-05-26T10:26:12.330Z,60
2017-05-26T10:27:12.633Z,60
2017-05-26T10:28:12.346Z,60
2017-05-26T10:29:11.825Z,60
2017-05-26T10:30:12.040Z,60
2017-05-26T10:31:12.359Z,60
2017-05-26T10:32:12.728Z,60
2017-05-26T10:33:12.116Z,60
2017-05-26T10:34:12.450Z,60
2017-05-26T10:35:12.712Z,60
2017-05-26T10:36:11.792Z,60
2017-05-26T10:37:12.460Z,60
2017-05-26T10:38:12.421Z,60
2017-05-26T10:39:12.901Z,60
2017-05-26T10:40:12.443Z,60
2017-05-26T10:41:12.449Z,60
2017-05-26T10:42:12.504Z,60
2017-05-26T10:43:12.163Z,60
2017-05-26T10:44:12.524Z,60
2017-05-26T10:45:12.850Z,55
2017-05-26T10:46:12.178Z,55
2017-05-26T10:47:12.508Z,55
2017-05-26T10:48:12.538Z,55
2017-05-26T10:49:13.293Z,55
2017-05-26T10:50:12.248Z,55
2017-05-26T10:51:12.856Z,55
2017-05-26T10:52:12.651Z,55
2017-05-26T10:53:12.876Z,55
2017-05-26T10:54:12.278Z,55
2017-05-26T10:55:12.273Z,55
2017-05-26T10:56:13.252Z,55
2017-05-26T10:57:12.336Z,55
2017-05-26T10:58:12.303Z,55
2017-05-26T10:59:12.931Z,55
2017-05-26T11:00:12.697Z,55
2017-05-26T11:01:12.631Z,55
2017-05-26T11:02:12.694Z,55
2017-05-26T11:03:12.454Z,55
2017-05-26T11:04:12.672Z,55
2017-05-26T11:05:12.101Z,55
2017-05-26T11:06:12.434Z,55
2017-05-26T11:07:13.056Z,55
2017-05-26T11:08:13.063Z,55
2017-05-26T11:09:12.451Z,55
2017-05-26T11:10:13.137Z,55
2017-05-26T11:11:12.733Z,55
2017-05-26T11:12:12.798Z,55
2017-05-26T11:13:12.800Z,55
2017-05-26T11:14:13.065Z,55
2017-05-26T11:15:12.506Z,55
2017-05-26T11:16:12.153Z,55
2017-05-26T11:17:12.791Z,55
2017-05-26T11:18:12.848Z,55
2017-05-26T11:19:13.123Z,55
2017-05-26T11:20:13.176Z,55
2017-05-26T11:21:13.122Z,55
2017-05-26T11:22:12.521Z,55
2017-05-26T11:23:12.839Z,55
2017-05-26T11:24:13.156Z,55
2017-05-26T11:25:13.185Z,55
2017-05-26T11:26:12.865Z,55
2017-05-26T11:27:12.927Z,50
2017-05-26T11:28:13.251Z,50
2017-05-26T11:29:12.901Z,50
2017-05-26T11:30:12.597Z,50
2017-05-26T11:31:13.247Z,50
2017-05-26T11:32:12.925Z,50
2017-05-26T11:33:12.621Z,50
2017-05-26T11:34:12.993Z,50
2017-05-26T11:35:13.272Z,50
2017-05-26T11:36:12.659Z,50
2017-05-26T11:37:13.343Z,50
2017-05-26T11:38:12.408Z,50
2017-05-26T11:39:13.311Z,50
2017-05-26T11:40:13.311Z,50
2017-05-26T11:41:13.008Z,50
2017-05-26T11:42:12.713Z,50
2017-05-26T11:43:13.036Z,50
2017-05-26T11:44:13.354Z,50
2017-05-26T11:45:13.144Z,50
2017-05-26T11:46:13.120Z,50
2017-05-26T11:47:12.825Z,50
2017-05-26T11:48:13.441Z,50
2017-05-26T11:49:13.395Z,50
2017-05-26T11:50:13.411Z,50
2017-05-26T11:51:13.108Z,50
2017-05-26T11:52:13.423Z,50
2017-05-26T11:53:13.177Z,50
2017-05-26T11:54:13.448Z,50
2017-05-26T11:55:12.882Z,45
2017-05-26T11:56:13.152Z,45
2017-05-26T11:57:13.168Z,45
2017-05-26T11:58:13.490Z,45
2017-05-26T11:59:13.490Z,45
2017-05-26T12:00:13.188Z,45
2017-05-26T12:01:12.946Z,45
2017-05-26T12:02:12.904Z,45
2017-05-26T12:03:13.536Z,45
2017-05-26T12:04:13.274Z,45
2017-05-26T12:05:13.562Z,45
2017-05-26T12:06:13.349Z,45
2017-05-26T12:07:13.564Z,45
2017-05-26T12:08:13.006Z,45
2017-05-26T12:09:13.062Z,45
2017-05-26T12:10:13.331Z,45
2017-05-26T12:11:13.310Z,45
2017-05-26T12:12:12.988Z,45
2017-05-26T12:13:13.675Z,45
2017-05-26T12:14:13.631Z,40
2017-05-26T12:15:13.641Z,40
2017-05-26T12:16:13.659Z,40
2017-05-26T12:17:13.449Z,40
2017-05-26T12:18:13.044Z,40
2017-05-26T12:19:13.056Z,40
2017-05-26T12:20:13.699Z,40
2017-05-26T12:21:13.440Z,40
2017-05-26T12:22:13.137Z,40
2017-05-26T12:23:13.770Z,40
2017-05-26T12:24:13.474Z,40
2017-05-26T12:25:13.789Z,40
2017-05-26T12:26:13.797Z,40
2017-05-26T12:27:13.445Z,40
2017-05-26T12:28:12.833Z,40
2017-05-26T12:29:13.771Z,40
2017-05-26T12:30:12.533Z,40
2017-05-26T12:31:13.839Z,40
2017-05-26T12:32:13.854Z,40
2017-05-26T12:33:13.508Z,40
2017-05-26T12:34:13.914Z,40
2017-05-26T12:35:13.605Z,40
2017-05-26T12:36:13.214Z,40
2017-05-26T12:37:13.584Z,40
2017-05-26T12:38:13.644Z,35
2017-05-26T12:39:13.556Z,35
2017-05-26T12:40:13.609Z,35
2017-05-26T12:41:13.888Z,35
2017-05-26T12:42:13.943Z,35
2017-05-26T12:43:13.283Z,35
2017-05-26T12:44:13.288Z,35
2017-05-26T12:45:13.607Z,35
2017-05-26T12:46:13.616Z,35
2017-05-26T12:47:13.415Z,35
2017-05-26T12:48:13.377Z,35
2017-05-26T12:49:13.343Z,35
2017-05-26T12:50:13.035Z,35
2017-05-26T12:51:14.026Z,35
2017-05-26T12:52:13.674Z,35
2017-05-26T12:53:13.688Z,35
2017-05-26T12:54:13.790Z,35
2017-05-26T12:55:14.022Z,35
2017-05-26T12:56:13.765Z,35
2017-05-26T12:57:13.406Z,35
2017-05-26T12:58:13.426Z,35
2017-05-26T12:59:13.435Z,35
2017-05-26T13:00:13.796Z,35
2017-05-26T13:01:14.132Z,30
2017-05-26T13:02:14.376Z,30
2017-05-26T13:03:14.140Z,30
2017-05-26T13:04:14.103Z,30
2017-05-26T13:05:14.162Z,30
2017-05-26T13:06:13.813Z,30
2017-05-26T13:07:13.869Z,30
2017-05-26T13:08:13.831Z,30
2017-05-26T13:09:13.262Z,30
2017-05-26T13:10:13.219Z,30
2017-05-26T13:11:13.856Z,30
2017-05-26T13:12:13.871Z,30
2017-05-26T13:13:14.237Z,30
2017-05-26T13:14:13.935Z,30
2017-05-26T13:15:13.633Z,30
2017-05-26T13:16:14.434Z,30
2017-05-26T13:17:13.596Z,30
2017-05-26T13:18:13.919Z,30
2017-05-26T13:19:13.983Z,30
2017-05-26T13:20:13.937Z,30
2017-05-26T13:21:13.634Z,30
2017-05-26T13:22:13.958Z,30
2017-05-26T13:23:14.013Z,30
2017-05-26T13:24:13.987Z,30
2017-05-26T13:25:14.294Z,30
2017-05-26T13:26:14.306Z,30
2017-05-26T13:27:14.411Z,30
2017-05-26T13:28:14.323Z,30
2017-05-26T13:29:14.335Z,30
2017-05-26T13:30:13.768Z,30
2017-05-26T13:31:14.042Z,30
2017-05-26T13:32:13.113Z,30
2017-05-26T13:33:14.054Z,30
2017-05-26T13:34:14.060Z,30
2017-05-26T13:35:14.488Z,30
2017-05-26T13:36:13.466Z,30
2017-05-26T13:37:13.836Z,30
2017-05-26T13:38:14.157Z,30
2017-05-26T13:39:14.116Z,30
2017-05-26T13:40:14.122Z,30
2017-05-26T13:41:14.178Z,30
2017-05-26T13:42:13.833Z,30
2017-05-26T13:43:14.201Z,30
2017-05-26T13:44:14.475Z,30
2017-05-26T13:45:13.911Z,30
2017-05-26T13:46:14.247Z,30
2017-05-26T13:47:13.614Z,30
2017-05-26T13:48:14.501Z,30
2017-05-26T13:49:14.570Z,30
2017-05-26T13:50:13.951Z,30
2017-05-26T13:51:13.967Z,30
2017-05-26T13:52:14.234Z,30
2017-05-26T13:53:13.930Z,30
2017-05-26T13:54:14.567Z,30
2017-05-26T13:55:14.573Z,30
2017-05-26T13:56:14.584Z,30
2017-05-26T13:57:14.596Z,30
2017-05-26T13:58:14.654Z,30
2017-05-26T13:59:14.615Z,30
2017-05-26T14:00:14.050Z,30
2017-05-26T14:01:14.329Z,30
2017-05-26T14:02:14.640Z,30
2017-05-26T14:03:14.642Z,30
2017-05-26T14:04:14.033Z,30
2017-05-26T14:05:14.417Z,30
2017-05-26T14:06:14.062Z,30
2017-05-26T14:07:14.756Z,30
2017-05-26T14:08:13.815Z,30
2017-05-26T14:09:14.460Z,30
2017-05-26T14:10:14.709Z,30
2017-05-26T14:11:14.471Z,30
2017-05-26T14:12:14.162Z,30
2017-05-26T14:13:14.431Z,30
2017-05-26T14:14:14.499Z,30
2017-05-26T14:15:14.503Z,30
2017-05-26T14:16:14.196Z,30
2017-05-26T14:17:14.929Z,30